Time;durP1;ratioP1;P1;durP2;ratioP2;P2;SDS_P1;SDS_P2;PMS_P1;PMS_P2;Temp;Humidity;BMP_temperature;BMP_pressure;BME280_temperature;BME280_humidity;BME280_pressure;Samples;Min_cycle;Max_cycle;Signal;HPM_P1;HPM_P2
2022/02/18 00:02:15;;;;;;;;;;;8.20;98.10;;;;;;6194098;23;19903;-89
2022/02/18 00:05:05;;;;;;;;;;;8.20;98.00;;;;;;6195077;23;19900;-90
2022/02/18 00:10:27;;;;;;;;;;;8.30;98.10;;;;;;6237316;23;19908;-89
2022/02/18 00:12:58;;;;;;;;;;;8.30;98.10;;;;;;6195498;23;19915;-89
2022/02/18 00:15:29;;;;;;;;;;;8.30;98.10;;;;;;6193735;23;19908;-89
2022/02/18 00:18:07;;;;;;;;;;;;;;;;;;;;;
2022/02/18 00:20:34;;;;;;;;;;;8.30;98.10;;;;;;6219627;23;20015;-89
2022/02/18 00:23:00;;;;;;;;;;;8.30;98.20;;;;;;6193377;23;19904;-89
2022/02/18 00:25:35;;;;;;;;;;;8.30;98.20;;;;;;6193509;23;19951;-88
2022/02/18 00:28:14;;;;;;;;;;;8.30;98.20;;;;;;6194100;23;19960;-89
2022/02/18 00:30:47;;;;;;;;;;;8.30;98.20;;;;;;6193164;23;20239;-89
2022/02/18 00:33:13;;;;;;;;;;;8.30;98.30;;;;;;6169357;23;19912;-89
2022/02/18 00:35:39;;;;;;;;;;;8.30;98.30;;;;;;6193190;23;19927;-87
2022/02/18 00:38:14;;;;;;;;;;;8.30;98.30;;;;;;6219320;23;19911;-89
2022/02/18 00:40:42;;;;;;;;;;;8.30;98.30;;;;;;6192572;23;19912;-87
2022/02/18 00:43:08;;;;;;;;;;;8.30;98.40;;;;;;6191863;23;20421;-87
2022/02/18 00:45:36;;;;;;;;;;;8.30;98.40;;;;;;6193389;23;19904;-88
2022/02/18 00:48:04;;;;;;;;;;;8.30;98.50;;;;;;6192848;23;19912;-89
2022/02/18 00:50:33;;;;;;;;;;;8.30;98.50;;;;;;6167493;23;19914;-89
2022/02/18 00:53:24;;;;;;;;;;;8.30;98.50;;;;;;6192385;23;19915;-89
2022/02/18 00:55:55;;;;;;;;;;;8.30;98.50;;;;;;6178089;23;19920;-87
2022/02/18 00:58:30;;;;;;;;;;;8.30;98.50;;;;;;6219407;23;19911;-88
2022/02/18 01:00:58;;;;;;;;;;;8.30;98.50;;;;;;6192513;23;19979;-88
2022/02/18 01:03:26;;;;;;;;;;;8.30;98.50;;;;;;6167342;23;19908;-89
2022/02/18 01:08:56;;;;;;;;;;;8.30;98.50;;;;;;6189014;23;19908;-89
2022/02/18 01:11:22;;;;;;;;;;;8.30;98.60;;;;;;6216489;23;19931;-89
2022/02/18 01:13:50;;;;;;;;;;;8.20;98.60;;;;;;6215783;23;19912;-88
2022/02/18 01:16:16;;;;;;;;;;;8.20;98.70;;;;;;6217690;23;19892;-88
2022/02/18 01:18:44;;;;;;;;;;;8.20;98.70;;;;;;6217807;23;19904;-88
2022/02/18 01:21:10;;;;;;;;;;;8.30;98.70;;;;;;6217774;23;19892;-89
2022/02/18 01:23:39;;;;;;;;;;;8.30;98.70;;;;;;6215497;23;19915;-89
2022/02/18 01:26:27;;;;;;;;;;;;;;;;;;;;;
2022/02/18 01:28:53;;;;;;;;;;;8.30;98.70;;;;;;6219481;23;19983;-89
2022/02/18 01:31:21;;;;;;;;;;;8.20;98.70;;;;;;6193508;23;19904;-89
2022/02/18 01:33:49;;;;;;;;;;;8.30;98.80;;;;;;6233620;23;19919;-89
2022/02/18 01:36:21;;;;;;;;;;;8.20;98.70;;;;;;6218530;23;19893;-87
2022/02/18 01:38:49;;;;;;;;;;;8.30;98.70;;;;;;6218098;23;19911;-89
2022/02/18 01:41:20;;;;;;;;;;;8.20;98.70;;;;;;6217649;23;19900;-90
2022/02/18 01:43:56;;;;;;;;;;;8.20;98.70;;;;;;6225726;23;20007;-88
2022/02/18 01:46:34;;;;;;;;;;;8.20;98.80;;;;;;6194445;23;19978;-89
2022/02/18 01:49:02;;;;;;;;;;;8.20;98.80;;;;;;6194939;23;19904;-88
2022/02/18 01:51:30;;;;;;;;;;;8.20;98.80;;;;;;6168827;23;19908;-90
2022/02/18 01:53:58;;;;;;;;;;;8.20;98.90;;;;;;6193984;23;19908;-88
2022/02/18 01:56:31;;;;;;;;;;;8.20;98.90;;;;;;6192674;23;19904;-88
2022/02/18 01:59:07;;;;;;;;;;;8.20;99.00;;;;;;6193204;23;19931;-88
2022/02/18 02:01:33;;;;;;;;;;;8.20;99.00;;;;;;6194145;23;19911;-90
2022/02/18 02:04:01;;;;;;;;;;;8.20;99.00;;;;;;6193951;23;20234;-88
2022/02/18 02:06:33;;;;;;;;;;;8.20;99.00;;;;;;6169275;23;19934;-90
2022/02/18 02:09:06;;;;;;;;;;;8.20;99.00;;;;;;6193981;23;19904;-88
2022/02/18 02:11:31;;;;;;;;;;;8.20;99.10;;;;;;6193493;23;19978;-88
2022/02/18 02:14:09;;;;;;;;;;;8.20;99.10;;;;;;6192765;23;19952;-89
2022/02/18 02:16:40;;;;;;;;;;;8.20;99.10;;;;;;6193400;23;19904;-89
2022/02/18 02:19:07;;;;;;;;;;;8.20;99.10;;;;;;6193275;23;20366;-89
2022/02/18 02:21:33;;;;;;;;;;;8.20;99.10;;;;;;6219854;23;19951;-91
2022/02/18 02:24:09;;;;;;;;;;;8.20;99.10;;;;;;6193937;23;20299;-90
2022/02/18 02:27:08;;;;;;;;;;;8.20;99.10;;;;;;6193995;23;19904;-87
2022/02/18 02:29:39;;;;;;;;;;;8.20;99.10;;;;;;6192346;23;19911;-88
2022/02/18 02:32:13;;;;;;;;;;;8.20;99.10;;;;;;6220438;23;19907;-90
2022/02/18 02:34:41;;;;;;;;;;;8.20;99.10;;;;;;6219983;23;19908;-88
2022/02/18 02:37:12;;;;;;;;;;;8.20;99.10;;;;;;6220183;23;19908;-89
2022/02/18 02:39:45;;;;;;;;;;;8.30;99.10;;;;;;6194298;23;19904;-88
2022/02/18 02:42:18;;;;;;;;;;;8.30;99.10;;;;;;6193710;23;19904;-90
2022/02/18 02:44:54;;;;;;;;;;;8.30;99.00;;;;;;6170016;23;20230;-87
2022/02/18 02:47:25;;;;;;;;;;;8.30;99.00;;;;;;6192929;23;19904;-88
2022/02/18 02:50:06;;;;;;;;;;;;;;;;;;;;;
2022/02/18 02:52:51;;;;;;;;;;;8.30;99.00;;;;;;6196255;23;19986;-88
2022/02/18 02:55:19;;;;;;;;;;;8.30;99.10;;;;;;6193887;23;19916;-89
2022/02/18 02:57:47;;;;;;;;;;;8.30;99.10;;;;;;6193249;23;19904;-89
2022/02/18 03:00:16;;;;;;;;;;;8.30;99.00;;;;;;6219847;23;19911;-88
2022/02/18 03:03:05;;;;;;;;;;;8.30;99.10;;;;;;6194350;23;19904;-88
2022/02/18 03:05:34;;;;;;;;;;;8.40;99.00;;;;;;6195017;23;19911;-89
2022/02/18 03:08:38;;;;;;;;;;;8.30;99.00;;;;;;6213540;23;19930;-87
2022/02/18 03:11:22;;;;;;;;;;;8.40;99.00;;;;;;6223205;23;19908;-89
2022/02/18 03:14:01;;;;;;;;;;;8.40;99.10;;;;;;6245002;23;19924;-89
2022/02/18 03:16:40;;;;;;;;;;;8.30;99.00;;;;;;6238056;23;19908;-90
2022/02/18 03:19:14;;;;;;;;;;;8.40;99.00;;;;;;6193228;23;19916;-89
2022/02/18 03:21:42;;;;;;;;;;;8.40;99.00;;;;;;6193630;23;19926;-88
2022/02/18 03:24:18;;;;;;;;;;;8.40;99.00;;;;;;6193510;23;19908;-88
2022/02/18 03:27:02;;;;;;;;;;;8.40;99.00;;;;;;6220543;23;19919;-88
2022/02/18 03:29:33;;;;;;;;;;;8.40;99.00;;;;;;6193623;23;19954;-90
2022/02/18 03:32:11;;;;;;;;;;;;;;;;;;;;;
2022/02/18 03:34:47;;;;;;;;;;;8.40;99.10;;;;;;6220318;23;19979;-90
2022/02/18 03:37:15;;;;;;;;;;;8.40;99.10;;;;;;6170111;23;19976;-89
2022/02/18 03:39:51;;;;;;;;;;;;;;;;;;;;;
2022/02/18 03:45:06;;;;;;;;;;;8.40;99.10;;;;;;6220733;23;19908;-89
2022/02/18 03:47:45;;;;;;;;;;;8.40;99.10;;;;;;6195192;23;19957;-89
2022/02/18 03:50:28;;;;;;;;;;;;;;;;;;;;;
2022/02/18 03:52:57;;;;;;;;;;;8.40;99.10;;;;;;6200670;23;19940;-89
2022/02/18 03:55:26;;;;;;;;;;;8.40;99.20;;;;;;6198917;23;19908;-89
2022/02/18 03:58:02;;;;;;;;;;;8.40;99.20;;;;;;6200386;23;19997;-89
2022/02/18 04:00:37;;;;;;;;;;;8.40;99.20;;;;;;6198845;23;20329;-88
2022/02/18 04:03:05;;;;;;;;;;;8.50;99.20;;;;;;6197781;23;19904;-88
2022/02/18 04:05:50;;;;;;;;;;;8.40;99.20;;;;;;6175423;23;19955;-88
2022/02/18 04:08:16;;;;;;;;;;;8.40;99.20;;;;;;6192935;23;19915;-90
2022/02/18 04:10:44;;;;;;;;;;;8.40;99.30;;;;;;6216781;23;19892;-91
2022/02/18 04:13:10;;;;;;;;;;;8.40;99.30;;;;;;6189765;23;19912;-88
2022/02/18 04:15:38;;;;;;;;;;;8.40;99.40;;;;;;6209978;23;19915;-86
2022/02/18 04:18:10;;;;;;;;;;;8.40;99.40;;;;;;6194370;23;19912;-88
2022/02/18 04:20:39;;;;;;;;;;;8.40;99.50;;;;;;6220456;23;19978;-88
2022/02/18 04:26:15;;;;;;;;;;;8.40;99.50;;;;;;6195598;23;19904;-89
2022/02/18 04:28:46;;;;;;;;;;;8.40;99.80;;;;;;6192423;23;19926;-88
2022/02/18 04:31:19;;;;;;;;;;;8.40;99.60;;;;;;6168158;23;20208;-90
2022/02/18 04:33:47;;;;;;;;;;;8.40;99.60;;;;;;6170095;23;20315;-88
2022/02/18 04:36:15;;;;;;;;;;;8.40;99.70;;;;;;6168604;23;20310;-89
2022/02/18 04:38:46;;;;;;;;;;;8.50;99.70;;;;;;6193110;23;20253;-89
2022/02/18 04:41:16;;;;;;;;;;;8.50;99.80;;;;;;6232740;23;19912;-88
2022/02/18 04:43:46;;;;;;;;;;;8.50;99.80;;;;;;6219527;23;19940;-88
2022/02/18 04:46:23;;;;;;;;;;;8.50;99.80;;;;;;6244512;23;19892;-88
2022/02/18 04:48:50;;;;;;;;;;;8.50;99.80;;;;;;6188923;23;19908;-91
2022/02/18 04:51:18;;;;;;;;;;;8.50;99.80;;;;;;6198337;23;19904;-89
2022/02/18 04:53:50;;;;;;;;;;;8.50;99.80;;;;;;6191986;23;19950;-89
2022/02/18 04:56:36;;;;;;;;;;;8.50;99.80;;;;;;6167896;23;20223;-89
2022/02/18 04:59:30;;;;;;;;;;;8.50;99.80;;;;;;6192542;23;19910;-88
2022/02/18 05:02:03;;;;;;;;;;;8.50;99.80;;;;;;6192221;23;19923;-89
2022/02/18 05:04:37;;;;;;;;;;;8.60;99.90;;;;;;6192708;23;19975;-90
2022/02/18 05:07:16;;;;;;;;;;;;;;;;;;;;;
2022/02/18 05:09:44;;;;;;;;;;;8.50;99.80;;;;;;6218230;23;19990;-90
2022/02/18 05:12:19;;;;;;;;;;;;;;;;;;;;;
2022/02/18 05:15:10;;;;;;;;;;;8.60;99.90;;;;;;6219017;23;19987;-88
2022/02/18 05:18:01;;;;;;;;;;;8.60;99.90;;;;;;6175067;23;19904;-87
2022/02/18 05:20:48;;;;;;;;;;;8.60;99.90;;;;;;6179265;23;19920;-89
2022/02/18 05:23:30;;;;;;;;;;;8.60;99.90;;;;;;6219739;23;19927;-88
2022/02/18 05:26:24;;;;;;;;;;;;;;;;;;;;;
2022/02/18 05:32:03;;;;;;;;;;;;;;;;;;;;;
2022/02/18 05:37:55;;;;;;;;;;;8.60;99.90;;;;;;6203919;23;19904;-88
2022/02/18 05:40:20;;;;;;;;;;;8.70;99.90;;;;;;6222805;23;19911;-89
2022/02/18 05:42:54;;;;;;;;;;;8.70;99.90;;;;;;6197516;23;19908;-90
2022/02/18 05:45:27;;;;;;;;;;;8.70;99.90;;;;;;6170113;23;19908;-90
2022/02/18 05:48:01;;;;;;;;;;;8.70;99.90;;;;;;6195692;23;19927;-87
2022/02/18 05:50:40;;;;;;;;;;;8.60;99.90;;;;;;6170803;23;19912;-88
2022/02/18 05:53:25;;;;;;;;;;;8.70;99.90;;;;;;6197397;23;19908;-89
2022/02/18 05:56:03;;;;;;;;;;;8.70;99.90;;;;;;6178443;23;19912;-90
2022/02/18 05:58:46;;;;;;;;;;;8.70;99.90;;;;;;6196438;23;19938;-90
2022/02/18 06:01:25;;;;;;;;;;;;;;;;;;;;;
2022/02/18 06:04:19;;;;;;;;;;;8.70;99.90;;;;;;6223666;23;19931;-87
2022/02/18 06:12:49;;;;;;;;;;;8.70;99.90;;;;;;6215058;23;20326;-88
2022/02/18 06:15:29;;;;;;;;;;;8.80;99.90;;;;;;6218810;23;19918;-91
2022/02/18 06:18:25;;;;;;;;;;;;;;;;;;;;;
2022/02/18 06:21:09;;;;;;;;;;;8.70;99.90;;;;;;6241803;23;19924;-88
2022/02/18 06:23:52;;;;;;;;;;;;;;;;;;;;;
2022/02/18 06:26:48;;;;;;;;;;;8.80;99.90;;;;;;6219199;23;19993;-93
2022/02/18 06:32:50;;;;;;;;;;;;;;;;;;;;;
2022/02/18 06:38:59;;;;;;;;;;;8.80;99.90;;;;;;6215024;23;19915;-88
2022/02/18 06:41:50;;;;;;;;;;;8.80;99.90;;;;;;6193514;23;19958;-87
2022/02/18 06:44:15;;;;;;;;;;;8.80;99.90;;;;;;6178288;23;19919;-88
2022/02/18 06:46:46;;;;;;;;;;;8.80;99.90;;;;;;6192892;23;20231;-86
2022/02/18 06:49:20;;;;;;;;;;;8.80;99.90;;;;;;6192349;23;19911;-88
2022/02/18 06:51:48;;;;;;;;;;;8.80;99.90;;;;;;6218902;23;19978;-88
2022/02/18 06:54:45;;;;;;;;;;;8.80;99.90;;;;;;6193250;23;20343;-90
2022/02/18 06:57:11;;;;;;;;;;;8.80;99.90;;;;;;6198097;23;19908;-88
2022/02/18 06:59:46;;;;;;;;;;;;;;;;;;;;;
2022/02/18 07:02:15;;;;;;;;;;;8.80;99.90;;;;;;6221416;23;19944;-88
2022/02/18 07:04:43;;;;;;;;;;;8.80;99.90;;;;;;6169514;23;19940;-88
2022/02/18 07:07:11;;;;;;;;;;;8.80;99.90;;;;;;6177824;23;20307;-89
2022/02/18 07:09:36;;;;;;;;;;;8.80;99.90;;;;;;6211352;23;19896;-89
2022/02/18 07:12:10;;;;;;;;;;;8.80;99.90;;;;;;6213644;23;19918;-89
2022/02/18 07:14:55;;;;;;;;;;;8.80;99.90;;;;;;6215992;23;19915;-88
2022/02/18 07:17:35;;;;;;;;;;;;;;;;;;;;;
2022/02/18 07:20:17;;;;;;;;;;;;;;;;;;;;;
2022/02/18 07:23:02;;;;;;;;;;;8.80;99.90;;;;;;6220018;23;19948;-90
2022/02/18 07:25:30;;;;;;;;;;;8.80;99.90;;;;;;6192651;23;19939;-88
2022/02/18 07:28:29;;;;;;;;;;;8.80;99.90;;;;;;6192730;23;19904;-88
2022/02/18 07:31:10;;;;;;;;;;;;;;;;;;;;;
2022/02/18 07:33:39;;;;;;;;;;;8.80;99.90;;;;;;6218795;23;19995;-88
2022/02/18 07:36:10;;;;;;;;;;;8.80;99.90;;;;;;6191453;23;19914;-88
2022/02/18 07:39:06;;;;;;;;;;;;;;;;;;;;;
2022/02/18 07:44:23;;;;;;;;;;;8.90;99.90;;;;;;6204183;23;19911;-90
2022/02/18 07:50:08;;;;;;;;;;;8.80;99.90;;;;;;6210195;23;19907;-89
2022/02/18 07:52:45;;;;;;;;;;;8.90;99.90;;;;;;6218967;23;19944;-87
2022/02/18 07:55:34;;;;;;;;;;;8.90;99.90;;;;;;6194337;23;19892;-89
2022/02/18 07:58:11;;;;;;;;;;;8.90;99.90;;;;;;6204461;23;19915;-89
2022/02/18 08:00:39;;;;;;;;;;;8.90;99.90;;;;;;6193959;23;19950;-91
2022/02/18 08:03:07;;;;;;;;;;;8.90;99.90;;;;;;6192749;23;19904;-91
2022/02/18 08:06:00;;;;;;;;;;;;;;;;;;;;;
2022/02/18 08:08:42;;;;;;;;;;;8.90;99.90;;;;;;6194501;23;19987;-92
2022/02/18 08:11:18;;;;;;;;;;;8.90;99.90;;;;;;6193259;23;19916;-91
2022/02/18 08:13:46;;;;;;;;;;;9.00;99.90;;;;;;6169664;23;19994;-93
2022/02/18 08:16:23;;;;;;;;;;;9.00;99.90;;;;;;6167752;23;19919;-91
2022/02/18 08:19:20;;;;;;;;;;;9.00;99.90;;;;;;6191771;23;19916;-91
2022/02/18 08:21:57;;;;;;;;;;;;;;;;;;;;;
2022/02/18 08:24:26;;;;;;;;;;;9.10;99.90;;;;;;6219095;23;19979;-91
2022/02/18 08:27:06;;;;;;;;;;;9.00;99.90;;;;;;6192122;23;19982;-91
2022/02/18 08:29:32;;;;;;;;;;;9.10;99.90;;;;;;6192383;23;19904;-89
2022/02/18 08:31:58;;;;;;;;;;;9.10;99.90;;;;;;6192133;23;19970;-90
2022/02/18 08:34:49;;;;;;;;;;;9.10;99.90;;;;;;6218788;23;19918;-91
2022/02/18 08:37:25;;;;;;;;;;;9.20;99.90;;;;;;6192078;23;19904;-91
2022/02/18 08:39:58;;;;;;;;;;;9.20;99.90;;;;;;6168142;23;19915;-92
2022/02/18 08:42:26;;;;;;;;;;;9.20;99.90;;;;;;6193020;23;19904;-91
2022/02/18 08:45:05;;;;;;;;;;;9.20;99.90;;;;;;6192430;23;20218;-91
2022/02/18 08:47:45;;;;;;;;;;;9.20;99.90;;;;;;6191413;23;19908;-93
2022/02/18 08:56:27;;;;;;;;;;;9.30;99.90;;;;;;6198884;23;19975;-90
2022/02/18 09:12:40;;;;;;;;;;;;;;;;;;;;;
2022/02/18 09:18:55;;;;;;;;;;;;;;;;;;;;;
2022/02/18 09:34:56;;;;;;;;;;;9.80;99.90;;;;;;6049572;23;19941;-90
2022/02/18 09:37:41;;;;;;;;;;;;;;;;;;;;;
2022/02/18 09:40:16;;;;;;;;;;;9.90;99.90;;;;;;6109899;23;19948;-89
2022/02/18 09:42:56;;;;;;;;;;;9.90;99.90;;;;;;6193649;23;19958;-91
2022/02/18 09:45:27;;;;;;;;;;;10.00;99.90;;;;;;6170482;23;19991;-91
2022/02/18 09:48:01;;;;;;;;;;;10.10;99.90;;;;;;6193665;23;19912;-90
2022/02/18 09:50:30;;;;;;;;;;;10.10;99.90;;;;;;6195561;23;19972;-90
2022/02/18 09:53:35;;;;;;;;;;;;;;;;;;;;;
2022/02/18 09:56:19;;;;;;;;;;;10.20;99.90;;;;;;6221506;23;19987;-90
2022/02/18 09:59:16;;;;;;;;;;;;;;;;;;;;;
2022/02/18 10:02:11;;;;;;;;;;;10.30;99.90;;;;;;6198545;23;19953;-89
2022/02/18 10:04:42;;;;;;;;;;;10.30;99.90;;;;;;6194169;23;19907;-90
2022/02/18 10:07:25;;;;;;;;;;;;;;;;;;;;;
2022/02/18 10:09:51;;;;;;;;;;;10.40;99.90;;;;;;6197431;23;19983;-89
2022/02/18 10:12:19;;;;;;;;;;;10.40;99.90;;;;;;6194317;23;19912;-91
2022/02/18 10:14:53;;;;;;;;;;;10.50;99.90;;;;;;6194866;23;19931;-88
2022/02/18 10:17:38;;;;;;;;;;;10.50;99.90;;;;;;6201609;23;19911;-90
2022/02/18 10:20:30;;;;;;;;;;;10.50;99.90;;;;;;6215607;23;19908;-90
2022/02/18 10:23:20;;;;;;;;;;;10.60;99.90;;;;;;6198683;23;19907;-90
2022/02/18 10:25:56;;;;;;;;;;;10.60;99.90;;;;;;6207514;23;19947;-88
2022/02/18 10:31:28;;;;;;;;;;;10.70;99.90;;;;;;6139769;23;19908;-93
2022/02/18 10:34:04;;;;;;;;;;;10.70;99.90;;;;;;6194792;23;19988;-92
2022/02/18 10:36:47;;;;;;;;;;;10.80;99.90;;;;;;6194197;23;19915;-91
2022/02/18 10:39:38;;;;;;;;;;;10.80;99.90;;;;;;6194755;23;19904;-92
2022/02/18 10:42:16;;;;;;;;;;;;;;;;;;;;;
2022/02/18 10:45:12;;;;;;;;;;;;;;;;;;;;;
2022/02/18 10:47:43;;;;;;;;;;;10.90;99.90;;;;;;6219882;23;20000;-90
2022/02/18 10:50:47;;;;;;;;;;;11.00;99.90;;;;;;6194709;23;20354;-91
2022/02/18 10:53:54;;;;;;;;;;;;;;;;;;;;;
2022/02/18 10:56:28;;;;;;;;;;;11.00;99.90;;;;;;6221322;23;20342;-91
2022/02/18 10:58:57;;;;;;;;;;;11.00;99.90;;;;;;6193845;23;19914;-90
2022/02/18 11:01:35;;;;;;;;;;;;;;;;;;;;;
2022/02/18 11:04:20;;;;;;;;;;;;;;;;;;;;;
2022/02/18 11:06:49;;;;;;;;;;;11.20;99.90;;;;;;6222094;23;19896;-91
2022/02/18 11:09:42;;;;;;;;;;;11.20;99.90;;;;;;6216821;23;19908;-91
2022/02/18 11:15:01;;;;;;;;;;;11.20;99.90;;;;;;6194001;23;19957;-91
2022/02/18 11:17:36;;;;;;;;;;;11.20;99.90;;;;;;6194412;23;19991;-91
2022/02/18 11:20:14;;;;;;;;;;;;;;;;;;;;;
2022/02/18 11:22:44;;;;;;;;;;;11.30;99.90;;;;;;6188809;23;19952;-91
2022/02/18 11:25:13;;;;;;;;;;;11.40;99.90;;;;;;6188773;23;19956;-92
2022/02/18 11:27:41;;;;;;;;;;;11.40;99.90;;;;;;6188593;23;20372;-91
2022/02/18 11:30:20;;;;;;;;;;;11.40;99.90;;;;;;6188808;23;20226;-91
2022/02/18 11:33:31;;;;;;;;;;;11.50;99.90;;;;;;6164138;23;19916;-92
2022/02/18 11:36:19;;;;;;;;;;;11.50;99.90;;;;;;6189684;23;19908;-88
2022/02/18 11:38:47;;;;;;;;;;;11.50;99.90;;;;;;6187245;23;20238;-86
2022/02/18 11:41:39;;;;;;;;;;;11.50;99.90;;;;;;6188439;23;19904;-88
2022/02/18 11:44:06;;;;;;;;;;;11.50;99.90;;;;;;6162935;23;19926;-88
2022/02/18 11:46:31;;;;;;;;;;;11.60;99.90;;;;;;6162563;23;19959;-89
2022/02/18 11:49:01;;;;;;;;;;;11.60;99.90;;;;;;6162967;23;19912;-89
2022/02/18 11:51:43;;;;;;;;;;;11.60;99.90;;;;;;6137943;23;19908;-89
2022/02/18 11:54:30;;;;;;;;;;;11.60;99.90;;;;;;6162997;23;19913;-87
2022/02/18 11:57:11;;;;;;;;;;;;;;;;;;;;;
2022/02/18 11:59:59;;;;;;;;;;;11.70;99.90;;;;;;6188775;23;20286;-88
2022/02/18 12:02:56;;;;;;;;;;;11.70;99.90;;;;;;6163734;23;19967;-88
2022/02/18 12:05:21;;;;;;;;;;;11.70;99.90;;;;;;6189065;23;19987;-89
2022/02/18 12:08:04;;;;;;;;;;;11.80;99.90;;;;;;6166268;23;20230;-90
2022/02/18 12:10:50;;;;;;;;;;;11.80;99.90;;;;;;6165719;23;20222;-89
2022/02/18 12:13:18;;;;;;;;;;;11.80;99.90;;;;;;6166382;23;19908;-91
2022/02/18 12:16:11;;;;;;;;;;;11.90;99.90;;;;;;6167275;23;20223;-89
2022/02/18 12:18:37;;;;;;;;;;;11.90;99.90;;;;;;6160989;23;19927;-91
2022/02/18 12:21:09;;;;;;;;;;;11.90;99.90;;;;;;6169301;23;19916;-90
2022/02/18 12:27:16;;;;;;;;;;;;;;;;;;;;;
2022/02/18 12:29:53;;;;;;;;;;;12.00;99.90;;;;;;6190416;23;20000;-92
2022/02/18 12:32:19;;;;;;;;;;;12.10;99.90;;;;;;6140072;23;19913;-90
2022/02/18 12:35:08;;;;;;;;;;;12.10;99.90;;;;;;6163246;23;19959;-92
2022/02/18 12:37:49;;;;;;;;;;;12.10;99.90;;;;;;6180754;23;19896;-91
2022/02/18 12:40:37;;;;;;;;;;;;;;;;;;;;;
2022/02/18 12:43:10;;;;;;;;;;;12.10;99.90;;;;;;6214157;23;19892;-91
2022/02/18 12:45:49;;;;;;;;;;;;;;;;;;;;;
2022/02/18 12:48:35;;;;;;;;;;;12.20;99.90;;;;;;6213196;23;19916;-92
2022/02/18 12:51:30;;;;;;;;;;;12.10;99.90;;;;;;6167190;23;19904;-91
2022/02/18 12:54:06;;;;;;;;;;;12.20;99.90;;;;;;6140907;23;19913;-91
2022/02/18 12:56:36;;;;;;;;;;;12.20;99.90;;;;;;6163841;23;19914;-91
2022/02/18 12:59:22;;;;;;;;;;;;;;;;;;;;;
2022/02/18 13:01:50;;;;;;;;;;;12.20;99.90;;;;;;6188843;23;19976;-90
2022/02/18 13:04:40;;;;;;;;;;;12.10;99.90;;;;;;6164062;23;20382;-91
2022/02/18 13:07:18;;;;;;;;;;;;;;;;;;;;;
2022/02/18 13:09:58;;;;;;;;;;;12.10;99.90;;;;;;6165978;23;19992;-91
2022/02/18 13:12:27;;;;;;;;;;;12.10;99.90;;;;;;6140669;23;19912;-89
2022/02/18 13:15:12;;;;;;;;;;;12.10;99.90;;;;;;6164089;23;19915;-92
2022/02/18 13:18:01;;;;;;;;;;;;;;;;;;;;;
2022/02/18 13:20:37;;;;;;;;;;;;;;;;;;;;;
2022/02/18 13:23:13;;;;;;;;;;;12.00;99.90;;;;;;6200141;23;20012;-88
2022/02/18 13:25:48;;;;;;;;;;;;;;;;;;;;;
2022/02/18 13:31:29;;;;;;;;;;;11.70;99.90;;;;;;6190556;23;19920;-94
2022/02/18 13:33:54;;;;;;;;;;;11.50;99.90;;;;;;6166549;23;19912;-91
2022/02/18 13:36:33;;;;;;;;;;;11.30;99.90;;;;;;6169907;23;19954;-93
2022/02/18 13:39:00;;;;;;;;;;;11.20;99.90;;;;;;6164452;23;19904;-90
2022/02/18 13:44:55;;;;;;;;;;;11.00;99.90;;;;;;6170117;23;19905;-92
2022/02/18 13:47:34;;;;;;;;;;;;;;;;;;;;;
2022/02/18 13:50:32;;;;;;;;;;;;;;;;;;;;;
2022/02/18 13:53:18;;;;;;;;;;;10.80;99.90;;;;;;6190488;23;20398;-91
2022/02/18 13:55:49;;;;;;;;;;;10.70;99.90;;;;;;6163099;23;19915;-89
2022/02/18 13:58:51;;;;;;;;;;;10.70;99.90;;;;;;6165293;23;19932;-91
2022/02/18 14:02:02;;;;;;;;;;;10.60;99.90;;;;;;6164010;23;19938;-92
2022/02/18 14:04:37;;;;;;;;;;;10.60;99.90;;;;;;6178088;23;19905;-91
2022/02/18 14:07:11;;;;;;;;;;;10.60;99.90;;;;;;6140646;23;20394;-90
2022/02/18 14:09:48;;;;;;;;;;;10.60;99.90;;;;;;6164161;23;19904;-93
2022/02/18 14:12:32;;;;;;;;;;;10.50;99.90;;;;;;6164757;23;19916;-92
2022/02/18 14:15:10;;;;;;;;;;;10.50;99.90;;;;;;6164531;23;19912;-90
2022/02/18 14:17:48;;;;;;;;;;;10.50;99.90;;;;;;6151232;23;19899;-91
2022/02/18 14:20:21;;;;;;;;;;;10.50;99.30;;;;;;6189249;23;19916;-90
2022/02/18 14:23:07;;;;;;;;;;;10.40;99.30;;;;;;6165098;23;19893;-93
2022/02/18 14:25:55;;;;;;;;;;;10.40;99.20;;;;;;6164149;23;19908;-92
2022/02/18 14:28:23;;;;;;;;;;;10.50;99.00;;;;;;6195681;23;19987;-91
2022/02/18 14:31:02;;;;;;;;;;;10.50;98.70;;;;;;6164345;23;19910;-91
2022/02/18 14:33:28;;;;;;;;;;;10.40;98.20;;;;;;6164221;23;20226;-88
2022/02/18 14:36:04;;;;;;;;;;;10.40;97.90;;;;;;6163382;23;19915;-88
2022/02/18 14:38:50;;;;;;;;;;;10.50;97.90;;;;;;6163374;23;19911;-92
2022/02/18 14:41:35;;;;;;;;;;;;;;;;;;;;;
2022/02/18 14:44:13;;;;;;;;;;;10.60;97.20;;;;;;6189853;23;19953;-91
2022/02/18 14:46:57;;;;;;;;;;;10.70;96.80;;;;;;6140230;23;19915;-91
2022/02/18 14:49:40;;;;;;;;;;;10.70;96.80;;;;;;6162861;23;19908;-90
2022/02/18 14:52:10;;;;;;;;;;;10.70;96.40;;;;;;6162640;23;19904;-90
2022/02/18 14:54:55;;;;;;;;;;;10.70;96.20;;;;;;6163244;23;19909;-90
2022/02/18 14:57:47;;;;;;;;;;;10.70;95.90;;;;;;6163296;23;19911;-89
2022/02/18 15:00:34;;;;;;;;;;;10.70;95.80;;;;;;6163547;23;20223;-90
2022/02/18 15:03:29;;;;;;;;;;;10.70;95.60;;;;;;6163050;23;19904;-92
2022/02/18 15:06:23;;;;;;;;;;;;;;;;;;;;;
2022/02/18 15:09:04;;;;;;;;;;;10.70;94.40;;;;;;6189320;23;20362;-90
2022/02/18 15:11:39;;;;;;;;;;;10.70;93.60;;;;;;6162583;23;19951;-90
2022/02/18 15:14:07;;;;;;;;;;;10.70;94.10;;;;;;6138817;23;19912;-90
2022/02/18 15:16:35;;;;;;;;;;;10.70;93.70;;;;;;6163375;23;19931;-90
2022/02/18 15:19:10;;;;;;;;;;;10.70;93.30;;;;;;6135581;23;19981;-91
2022/02/18 15:21:41;;;;;;;;;;;10.70;92.20;;;;;;6162488;23;19924;-90
2022/02/18 15:24:09;;;;;;;;;;;10.70;92.50;;;;;;6163348;23;19978;-88
2022/02/18 15:26:38;;;;;;;;;;;10.70;91.70;;;;;;6163292;23;19904;-91
2022/02/18 15:29:07;;;;;;;;;;;10.70;91.20;;;;;;6189886;23;19991;-90
2022/02/18 15:37:28;;;;;;;;;;;10.70;88.40;;;;;;6098755;23;20287;-92
2022/02/18 15:42:49;;;;;;;;;;;10.70;85.40;;;;;;6197586;23;19915;-89
2022/02/18 15:45:20;;;;;;;;;;;10.80;85.00;;;;;;6194042;23;19907;-90
2022/02/18 15:51:00;;;;;;;;;;;10.80;85.30;;;;;;6195282;23;20389;-92
2022/02/18 15:53:46;;;;;;;;;;;10.70;83.90;;;;;;6194850;23;19907;-91
2022/02/18 15:56:12;;;;;;;;;;;10.70;83.10;;;;;;6218224;23;19979;-88
2022/02/18 15:58:43;;;;;;;;;;;10.70;82.60;;;;;;6218768;23;19903;-89
2022/02/18 16:01:36;;;;;;;;;;;10.70;82.70;;;;;;6217842;23;19923;-89
2022/02/18 16:04:29;;;;;;;;;;;;;;;;;;;;;
2022/02/18 16:07:25;;;;;;;;;;;10.70;84.70;;;;;;6197342;23;19991;-88
2022/02/18 16:10:06;;;;;;;;;;;10.60;83.30;;;;;;6182636;23;19920;-89
2022/02/18 16:13:01;;;;;;;;;;;10.60;83.70;;;;;;6192522;23;19908;-89
2022/02/18 16:15:29;;;;;;;;;;;10.60;84.10;;;;;;6218178;23;19931;-89
2022/02/18 16:21:07;;;;;;;;;;;10.60;85.00;;;;;;6205854;23;19923;-89
2022/02/18 16:23:38;;;;;;;;;;;10.50;84.70;;;;;;6163060;23;19909;-89
2022/02/18 16:26:14;;;;;;;;;;;10.50;85.20;;;;;;6167117;23;19904;-92
2022/02/18 16:29:02;;;;;;;;;;;10.50;85.80;;;;;;6168958;23;19914;-91
2022/02/18 16:31:40;;;;;;;;;;;10.50;86.90;;;;;;6191349;23;19915;-90
2022/02/18 16:34:09;;;;;;;;;;;10.40;88.00;;;;;;6170384;23;19960;-89
2022/02/18 16:36:38;;;;;;;;;;;10.30;88.90;;;;;;6209576;23;19908;-88
2022/02/18 16:41:57;;;;;;;;;;;10.10;89.50;;;;;;6218261;23;19910;-92
2022/02/18 16:44:25;;;;;;;;;;;10.00;89.20;;;;;;6210235;23;19914;-90
2022/02/18 16:46:51;;;;;;;;;;;10.00;88.70;;;;;;6193605;23;20315;-90
2022/02/18 16:49:28;;;;;;;;;;;9.90;87.90;;;;;;6192817;23;19947;-89
2022/02/18 16:51:58;;;;;;;;;;;9.80;87.00;;;;;;6193156;23;19931;-88
2022/02/18 16:54:30;;;;;;;;;;;9.80;87.20;;;;;;6167334;23;20322;-89
2022/02/18 16:56:58;;;;;;;;;;;9.70;88.30;;;;;;6191468;23;19911;-88
2022/02/18 16:59:36;;;;;;;;;;;9.70;89.30;;;;;;6166306;23;19940;-89
2022/02/18 17:02:11;;;;;;;;;;;9.60;89.10;;;;;;6192143;23;19978;-88
2022/02/18 17:05:08;;;;;;;;;;;9.50;89.30;;;;;;6191316;23;19904;-88
2022/02/18 17:07:37;;;;;;;;;;;9.50;88.40;;;;;;6182937;23;19954;-90
2022/02/18 17:10:18;;;;;;;;;;;9.40;88.60;;;;;;6191515;23;19986;-91
2022/02/18 17:12:50;;;;;;;;;;;9.40;88.60;;;;;;6192579;23;20250;-88
2022/02/18 17:15:28;;;;;;;;;;;9.40;88.20;;;;;;6192858;23;19932;-88
2022/02/18 17:17:59;;;;;;;;;;;9.30;88.10;;;;;;6194420;23;19907;-88
2022/02/18 17:20:50;;;;;;;;;;;9.40;88.90;;;;;;6194336;23;19943;-88
2022/02/18 17:23:16;;;;;;;;;;;9.30;88.20;;;;;;6194968;23;19916;-89
2022/02/18 17:25:42;;;;;;;;;;;9.30;88.60;;;;;;6200500;23;19904;-91
2022/02/18 17:28:10;;;;;;;;;;;9.20;89.20;;;;;;6245919;23;19911;-90
2022/02/18 17:31:12;;;;;;;;;;;;;;;;;;;;;
2022/02/18 17:33:58;;;;;;;;;;;9.20;89.60;;;;;;6244388;23;19908;-90
2022/02/18 17:36:31;;;;;;;;;;;9.20;89.80;;;;;;6197682;23;19931;-88
2022/02/18 17:39:16;;;;;;;;;;;;;;;;;;;;;
2022/02/18 17:41:53;;;;;;;;;;;9.10;89.80;;;;;;6219126;23;20410;-88
2022/02/18 17:44:22;;;;;;;;;;;9.10;90.00;;;;;;6169350;23;19969;-89
2022/02/18 17:46:52;;;;;;;;;;;9.10;90.30;;;;;;6190619;23;19908;-89
2022/02/18 17:53:23;;;;;;;;;;;9.00;91.20;;;;;;6164555;23;19927;-91
2022/02/18 17:55:34;;;;;;;;;;;8.90;91.60;;;;;;6203800;23;20035;-89
2022/02/18 17:58:05;;;;;;;;;;;8.80;91.50;;;;;;6219630;23;19908;-90
2022/02/18 18:00:58;;;;;;;;;;;8.80;91.30;;;;;;6194636;23;19908;-90
2022/02/18 18:03:47;;;;;;;;;;;8.70;91.00;;;;;;6184174;23;19911;-90